Condicions actuals
Partly Cloudy
Conditions



Pressió:
1015.92 (hPa) - 30 (inHG)
Visibilitat:

10.0 (km) - 6.2 (miles)
Base de Núvols

1067 (Mts) - 3500 (Feets)
   Temperatura
28  °C
Temperatura
18  °C
P.ros.
55  %
 Humitat
   Velocitat del Vent
14  km/h
8  kts
9  mph
4.0  m/s
   Vent Direcció
N
45°
E
90°
135°
S
180°
225°
O
270°
315°
 140°

Sur   Est
   Airport Data
LELL
Sabadell Airport
Metar :LELL 281000Z 14008KT 070V210 9999 FEW035 28/18 Q1016
Wed 28th July 12:00 pm
   Raw Metar Info
Raw METAR is the most common format in the world for the transmission of observational weather data. It is highly standardized through the International Civil Aviation Organization (ICAO), which allows it to be understood throughout most of the world.
   API Info
Data Provided by
https://www.checkwx.com/weather/LELL

Aviation Weather providing METAR, TAF, AIRMET, SIGMET and OUTLOOK Weather Reports
   © Info
CSS/SVG/PHP scripts were developed by weather34.com for use in the weather34 template © 2015-2021

Guide Info provided by Metar-Wikipedia